Terminal Aerodrome Forecast
Issued by NWS

Home | Current Version | Previous Version | Text Only | Print | Product List | Glossary On
Versions: 1 2 3 4 5 6 7 8 9 10 11 12 13 14 15 16
000
FTUS45 KPSR 011731
TAFSDL
TAF
KSDL 011731Z 0118/0218 15005KT P6SM BKN100
     FM012000 22005KT P6SM SCT080
     FM020200 VRB03KT P6SM SKC
     FM021500 10007KT P6SM SKC=

USA.gov is the U.S. government's official web portal to all federal, state and local government web resources and services.